Time;durP1;ratioP1;P1;durP2;ratioP2;P2;SDS_P1;SDS_P2;PMS_P1;PMS_P2;Temp;Humidity;BMP_temperature;BMP_pressure;BME280_temperature;BME280_humidity;BME280_pressure;Samples;Min_cycle;Max_cycle;Signal;HPM_P1;HPM_P2
2024/04/21 00:00:36;;;;;;;3.83;3.20;;;;;;;4.16;80.01;100420.84;5452132;26;20242;-63
2024/04/21 00:03:04;;;;;;;3.60;2.50;;;;;;;4.17;79.42;100425.09;5452435;26;20230;-64
2024/04/21 00:05:34;;;;;;;3.03;2.57;;;;;;;4.12;78.61;100419.03;5449073;26;20293;-63
2024/04/21 00:08:02;;;;;;;2.93;2.63;;;;;;;4.12;78.78;100429.22;5447512;26;20243;-64
2024/04/21 00:10:33;;;;;;;3.80;2.50;;;;;;;4.09;78.39;100426.63;5451907;26;20264;-64
2024/04/21 00:13:00;;;;;;;3.63;3.27;;;;;;;4.09;78.24;100430.03;5452089;26;20672;-64
2024/04/21 00:15:30;;;;;;;3.47;2.70;;;;;;;4.05;78.02;100425.72;5452083;26;20269;-63
2024/04/21 00:18:00;;;;;;;3.17;2.87;;;;;;;4.05;78.26;100429.91;5432849;26;20277;-64
2024/04/21 00:20:30;;;;;;;3.40;2.67;;;;;;;4.04;77.60;100438.41;5451985;26;20637;-64
2024/04/21 00:22:57;;;;;;;4.17;2.50;;;;;;;4.04;77.88;100435.84;5447596;26;22278;-64
2024/04/21 00:25:26;;;;;;;3.40;2.70;;;;;;;4.06;78.13;100439.31;5450600;26;20250;-64
2024/04/21 00:27:54;;;;;;;3.70;2.33;;;;;;;4.09;77.69;100441.94;5450977;26;20333;-64
2024/04/21 00:30:23;;;;;;;3.87;2.37;;;;;;;4.09;77.54;100447.03;5447654;26;20230;-63
2024/04/21 00:32:50;;;;;;;3.70;2.53;;;;;;;4.15;77.41;100441.19;5451655;26;20788;-63
2024/04/21 00:35:23;;;;;;;3.47;2.40;;;;;;;4.19;77.03;100438.72;5451893;26;20242;-63
2024/04/21 00:37:50;;;;;;;2.77;2.30;;;;;;;4.22;75.78;100443.03;5449814;26;20292;-63
2024/04/21 00:40:20;;;;;;;2.73;2.43;;;;;;;4.19;75.54;100437.88;5450566;26;20545;-62
2024/04/21 00:42:57;;;;;;;3.77;2.50;;;;;;;4.14;75.21;100437.78;5448315;26;20230;-63
2024/04/21 00:45:28;;;;;;;2.77;2.20;;;;;;;4.09;75.57;100436.84;5450621;26;20337;-64
2024/04/21 00:48:04;;;;;;;5.10;2.60;;;;;;;4.05;74.99;100440.13;5451283;26;20234;-64
2024/04/21 00:50:39;;;;;;;4.27;2.60;;;;;;;4.04;75.25;100443.50;5451762;26;21026;-63
2024/04/21 00:53:09;;;;;;;3.53;2.50;;;;;;;4.00;74.76;100431.53;5448910;26;20696;-64
2024/04/21 00:55:40;;;;;;;3.87;2.60;;;;;;;3.99;74.84;100437.47;5451045;26;20713;-64
2024/04/21 00:58:07;;;;;;;3.50;2.47;;;;;;;3.96;74.51;100439.94;5450988;26;20609;-63
2024/04/21 01:00:38;;;;;;;3.47;2.10;;;;;;;3.91;74.45;100439.84;5450897;26;20280;-65
2024/04/21 01:03:05;;;;;;;4.63;2.20;;;;;;;3.91;74.58;100449.19;5449738;26;20285;-64
2024/04/21 01:05:38;;;;;;;3.20;2.63;;;;;;;3.88;74.46;100440.63;5451473;26;20234;-63
2024/04/21 01:08:05;;;;;;;3.57;2.20;;;;;;;3.90;74.32;100440.66;5451988;26;20776;-62
2024/04/21 01:10:35;;;;;;;3.17;2.50;;;;;;;3.80;74.02;100429.41;5449422;26;20261;-62
2024/04/21 01:13:08;;;;;;;3.37;2.40;;;;;;;3.87;74.03;100436.38;5450642;26;20970;-64
2024/04/21 01:15:38;;;;;;;3.40;2.33;;;;;;;3.91;74.21;100439.00;5451195;26;20291;-64
2024/04/21 01:18:07;;;;;;;4.57;2.40;;;;;;;3.86;73.57;100432.06;5451812;26;20600;-65
2024/04/21 01:20:40;;;;;;;3.20;2.63;;;;;;;3.87;73.63;100443.16;5447805;26;20255;-62
2024/04/21 01:23:10;;;;;;;4.10;2.27;;;;;;;3.86;73.80;100437.16;5450835;26;20235;-64
2024/04/21 01:25:40;;;;;;;2.50;2.30;;;;;;;3.85;73.63;100435.47;5449286;26;20351;-63
2024/04/21 01:28:07;;;;;;;4.30;2.47;;;;;;;3.85;73.27;100435.47;5450049;26;20242;-61
2024/04/21 01:30:37;;;;;;;3.17;2.43;;;;;;;3.85;73.12;100445.66;5443808;26;20289;-62
2024/04/21 01:33:04;;;;;;;2.47;2.27;;;;;;;3.83;72.99;100444.78;5450155;26;20581;-63
2024/04/21 01:35:34;;;;;;;2.80;2.40;;;;;;;3.84;72.98;100445.63;5451184;26;20642;-61
2024/04/21 01:38:01;;;;;;;3.17;2.40;;;;;;;3.86;73.09;100444.81;5448774;26;20283;-63
2024/04/21 01:40:33;;;;;;;2.43;2.20;;;;;;;3.90;73.00;100444.91;5449938;26;20234;-62
2024/04/21 01:43:01;;;;;;;3.93;2.63;;;;;;;3.87;72.77;100450.81;5432725;26;20553;-63
2024/04/21 01:45:31;;;;;;;3.73;2.70;;;;;;;3.90;72.96;100455.09;5443295;26;20311;-63
2024/04/21 01:47:58;;;;;;;3.83;2.40;;;;;;;3.90;72.25;100450.00;5448550;26;20245;-63
2024/04/21 01:50:28;;;;;;;2.70;2.43;;;;;;;3.91;72.87;100454.28;5450934;26;20234;-62
2024/04/21 01:52:55;;;;;;;3.20;2.30;;;;;;;3.94;73.12;100452.66;5449956;26;20285;-63
2024/04/21 01:55:25;;;;;;;4.27;2.40;;;;;;;3.93;72.27;100455.16;5447425;26;20247;-64
2024/04/21 01:57:54;;;;;;;2.30;2.10;;;;;;;3.85;71.87;100453.31;5451262;26;21110;-63
2024/04/21 02:00:24;;;;;;;3.63;2.30;;;;;;;3.81;72.13;100448.09;5448766;26;20254;-64
2024/04/21 02:02:51;;;;;;;3.23;2.27;;;;;;;3.79;71.77;100450.63;5450609;26;20330;-62
2024/04/21 02:05:21;;;;;;;3.67;2.63;;;;;;;3.74;72.09;100457.31;5450411;26;20587;-60
2024/04/21 02:07:50;;;;;;;4.03;2.43;;;;;;;3.66;72.24;100445.22;5421747;26;20229;-61
2024/04/21 02:10:20;;;;;;;2.27;2.07;;;;;;;3.69;72.10;100455.50;5450491;26;20762;-62
2024/04/21 02:12:48;;;;;;;3.80;2.57;;;;;;;3.69;72.40;100458.03;5450054;26;20786;-62
2024/04/21 02:15:20;;;;;;;2.60;2.30;;;;;;;3.68;71.96;100459.69;5431250;26;20622;-60
2024/04/21 02:17:48;;;;;;;2.40;2.17;;;;;;;3.62;71.63;100455.34;5444717;26;20246;-61
2024/04/21 02:20:17;;;;;;;3.57;2.53;;;;;;;3.58;71.84;100460.34;5449227;26;20246;-63
2024/04/21 02:22:45;;;;;;;3.40;2.53;;;;;;;3.59;71.76;100456.94;5450124;26;20230;-60
2024/04/21 02:25:16;;;;;;;4.20;2.17;;;;;;;3.55;71.88;100455.16;5450199;26;20705;-60
2024/04/21 02:27:44;;;;;;;2.33;2.00;;;;;;;3.50;71.48;100449.97;5450521;26;20234;-60
2024/04/21 02:30:15;;;;;;;2.90;2.20;;;;;;;3.49;71.88;100462.66;5447122;26;20246;-61
2024/04/21 02:32:45;;;;;;;3.20;2.10;;;;;;;3.51;72.34;100471.22;5449301;26;20705;-61
2024/04/21 02:35:15;;;;;;;3.03;2.70;;;;;;;3.53;72.34;100470.41;5440810;26;20245;-62
2024/04/21 02:37:42;;;;;;;5.00;2.43;;;;;;;3.53;71.88;100465.31;5450329;26;20338;-60
2024/04/21 02:40:13;;;;;;;2.67;2.20;;;;;;;3.54;72.01;100468.75;5449721;26;20347;-59
2024/04/21 02:42:41;;;;;;;2.30;2.10;;;;;;;3.53;71.67;100472.09;5449753;26;20305;-61
2024/04/21 02:45:11;;;;;;;2.37;2.17;;;;;;;3.52;72.00;100483.97;5449653;26;20246;-61
2024/04/21 02:47:38;;;;;;;2.40;2.20;;;;;;;3.54;72.04;100484.03;5441248;26;20644;-62
2024/04/21 02:50:10;;;;;;;2.57;2.10;;;;;;;3.55;71.92;100473.84;5446165;26;20565;-61
2024/04/21 02:52:37;;;;;;;3.33;2.50;;;;;;;3.55;71.42;100473.00;5443489;26;20306;-60
2024/04/21 02:55:07;;;;;;;2.40;2.20;;;;;;;3.52;71.07;100472.91;5449516;26;20618;-63
2024/04/21 02:57:34;;;;;;;2.97;2.57;;;;;;;3.47;71.40;100477.91;5449318;26;20231;-61
2024/04/21 03:00:05;;;;;;;2.73;2.50;;;;;;;3.46;71.87;100470.22;5449588;26;20238;-59
2024/04/21 03:02:32;;;;;;;4.67;2.20;;;;;;;3.47;71.77;100474.50;5447614;26;20237;-60
2024/04/21 03:05:02;;;;;;;3.47;2.33;;;;;;;3.48;71.45;100471.97;5430231;26;20277;-62
2024/04/21 03:07:36;;;;;;;3.07;2.73;;;;;;;3.51;71.04;100463.56;5444137;26;20246;-61
2024/04/21 03:10:07;;;;;;;5.27;2.60;;;;;;;3.43;71.18;100462.53;5452593;26;20242;-60
2024/04/21 03:12:34;;;;;;;3.80;2.80;;;;;;;3.41;71.59;100469.25;5450030;26;20234;-62
2024/04/21 03:15:04;;;;;;;2.50;2.30;;;;;;;3.35;71.77;100468.28;5453286;26;20234;-61
2024/04/21 03:17:31;;;;;;;2.73;2.40;;;;;;;3.34;72.03;100473.34;5464650;26;20756;-62
2024/04/21 03:20:01;;;;;;;2.60;2.40;;;;;;;3.35;71.87;100464.84;5449118;26;20823;-64
2024/04/21 03:22:28;;;;;;;4.50;2.40;;;;;;;3.32;71.66;100467.34;5453133;26;20315;-61
2024/04/21 03:25:01;;;;;;;3.80;2.50;;;;;;;3.30;72.02;100459.66;5452975;26;20246;-63
2024/04/21 03:27:28;;;;;;;3.47;2.50;;;;;;;3.28;71.93;100463.88;5449230;26;20783;-62
2024/04/21 03:29:58;;;;;;;4.37;2.53;;;;;;;3.26;72.76;100470.59;5452447;26;20226;-61
2024/04/21 03:32:25;;;;;;;4.37;2.70;;;;;;;3.29;72.62;100472.38;5452977;26;20374;-60
2024/04/21 03:34:55;;;;;;;3.77;2.67;;;;;;;3.31;72.57;100468.16;5373222;26;20234;-62
2024/04/21 03:37:25;;;;;;;3.97;2.80;;;;;;;3.31;72.30;100474.09;5362398;26;20611;-62
2024/04/21 03:39:55;;;;;;;3.37;2.30;;;;;;;3.31;72.23;100469.00;5380414;26;20641;-62
2024/04/21 03:42:27;;;;;;;3.87;2.93;;;;;;;3.30;72.27;100477.50;5357489;26;20245;-62
2024/04/21 03:44:57;;;;;;;2.57;2.20;;;;;;;3.26;71.93;100472.28;5352253;26;20563;-62
2024/04/21 03:47:24;;;;;;;2.73;2.53;;;;;;;3.22;72.44;100467.94;5370964;26;20755;-62
2024/04/21 03:49:54;;;;;;;3.47;2.63;;;;;;;3.21;72.74;100472.19;5347822;26;20242;-63
2024/04/21 03:52:22;;;;;;;2.93;2.53;;;;;;;3.19;72.48;100478.06;5370029;26;20260;-61
2024/04/21 03:54:52;;;;;;;4.07;2.83;;;;;;;3.20;72.39;100475.53;5362163;26;20233;-61
2024/04/21 03:57:19;;;;;;;3.37;2.70;;;;;;;3.20;72.60;100474.66;5371514;26;20289;-61
2024/04/21 03:59:51;;;;;;;3.33;2.40;;;;;;;3.18;72.47;100469.56;5375942;26;20267;-61
2024/04/21 04:02:21;;;;;;;3.67;2.70;;;;;;;3.19;72.23;100472.97;5381259;26;20228;-60
2024/04/21 04:04:48;;;;;;;5.40;2.93;;;;;;;3.19;72.33;100472.97;5348910;26;20248;-61
2024/04/21 04:07:18;;;;;;;2.80;2.53;;;;;;;3.11;72.65;100465.13;5365649;26;20233;-62
2024/04/21 04:09:45;;;;;;;3.33;3.00;;;;;;;3.17;72.88;100470.38;5368005;26;20248;-62
2024/04/21 04:12:15;;;;;;;3.03;2.47;;;;;;;3.20;72.67;100475.53;5381093;26;20236;-61
2024/04/21 04:14:42;;;;;;;5.23;2.80;;;;;;;3.21;72.69;100471.31;5378816;26;20252;-62
2024/04/21 04:17:14;;;;;;;3.03;2.73;;;;;;;3.13;72.56;100477.09;5373487;26;20784;-61
2024/04/21 04:19:42;;;;;;;4.33;2.80;;;;;;;3.15;73.33;100482.19;5354206;26;20245;-61
2024/04/21 04:22:11;;;;;;;3.23;2.93;;;;;;;3.17;73.23;100483.13;5370649;26;20350;-61
2024/04/21 04:24:39;;;;;;;4.87;2.80;;;;;;;3.18;73.13;100481.44;5346309;26;20376;-62
2024/04/21 04:27:09;;;;;;;5.03;3.00;;;;;;;3.21;73.31;100491.69;5363121;26;20832;-65
2024/04/21 04:29:36;;;;;;;3.77;2.90;;;;;;;3.19;73.01;100481.44;5362055;26;20241;-63
2024/04/21 04:32:07;;;;;;;4.33;3.00;;;;;;;3.21;73.25;100478.97;5379601;26;20279;-64
2024/04/21 04:34:37;;;;;;;3.27;2.73;;;;;;;3.25;73.25;100480.75;5444181;26;20737;-64
2024/04/21 04:37:07;;;;;;;4.33;2.83;;;;;;;3.24;72.82;100482.44;5452600;26;20803;-63
2024/04/21 04:39:34;;;;;;;2.90;2.60;;;;;;;3.24;73.30;100487.53;5452141;26;20281;-63
2024/04/21 04:42:04;;;;;;;5.23;2.90;;;;;;;3.18;73.09;100489.06;5452223;26;20234;-64
2024/04/21 04:44:31;;;;;;;4.03;3.20;;;;;;;3.13;73.77;100491.50;5448021;26;20630;-64
2024/04/21 04:47:01;;;;;;;4.27;3.20;;;;;;;3.16;73.68;100501.75;5447783;26;20789;-64
2024/04/21 04:49:29;;;;;;;3.83;3.13;;;;;;;3.18;73.73;100487.38;5451647;26;20778;-64
2024/04/21 04:52:01;;;;;;;4.37;2.73;;;;;;;3.25;74.00;100496.91;5452155;26;20319;-63
2024/04/21 04:54:28;;;;;;;4.00;3.23;;;;;;;3.29;74.26;100495.28;5452409;26;20241;-63
2024/04/21 04:56:58;;;;;;;3.73;2.97;;;;;;;3.33;74.04;100495.41;5451597;26;20814;-62
2024/04/21 04:59:25;;;;;;;6.10;3.17;;;;;;;3.33;73.73;100487.75;5451131;26;20242;-61
2024/04/21 05:01:55;;;;;;;3.97;3.00;;;;;;;3.35;73.63;100500.50;5444605;26;20350;-62
2024/04/21 05:04:22;;;;;;;3.50;2.90;;;;;;;3.38;73.66;100501.47;5448085;26;20386;-60
2024/04/21 05:06:53;;;;;;;7.63;3.37;;;;;;;3.43;73.52;100499.03;5451276;26;20499;-63
2024/04/21 05:09:23;;;;;;;4.40;2.93;;;;;;;3.41;73.36;100492.19;5452127;26;20768;-63
2024/04/21 05:11:53;;;;;;;4.23;3.20;;;;;;;3.38;73.48;100501.47;5450924;26;20334;-63
2024/04/21 05:14:20;;;;;;;4.07;2.83;;;;;;;3.41;73.79;100507.47;5451653;26;20382;-62
2024/04/21 05:16:49;;;;;;;3.97;2.87;;;;;;;3.42;73.55;100496.44;5449571;26;20250;-61
2024/04/21 05:19:17;;;;;;;5.10;3.03;;;;;;;3.37;73.52;100497.19;5450991;26;20246;-61
2024/04/21 05:21:46;;;;;;;4.07;3.20;;;;;;;3.37;74.07;100504.84;5451108;26;20234;-61
2024/04/21 05:24:14;;;;;;;5.50;3.07;;;;;;;3.42;74.12;100506.63;5448160;26;20749;-62
2024/04/21 05:26:46;;;;;;;5.47;3.33;;;;;;;3.46;74.27;100503.31;5450222;26;20586;-61
2024/04/21 05:29:13;;;;;;;4.40;3.00;;;;;;;3.45;74.28;100497.38;5446960;26;20701;-62
2024/04/21 05:31:43;;;;;;;4.00;3.17;;;;;;;3.47;74.15;100497.44;5451843;26;20231;-61
2024/04/21 05:34:12;;;;;;;3.60;3.27;;;;;;;3.44;73.94;100505.00;5448125;26;20253;-63
2024/04/21 05:36:41;;;;;;;3.20;2.90;;;;;;;3.42;74.25;100511.72;5450789;26;20234;-64
2024/04/21 05:39:11;;;;;;;4.10;2.77;;;;;;;3.38;74.41;100501.47;5450933;26;20254;-64
2024/04/21 05:41:40;;;;;;;4.23;3.13;;;;;;;3.43;74.73;100501.59;5447345;26;20246;-63
2024/04/21 05:44:10;;;;;;;4.83;3.47;;;;;;;3.48;74.26;100512.75;5451038;26;20246;-61
2024/04/21 05:46:40;;;;;;;3.50;3.20;;;;;;;3.51;74.18;100511.97;5450764;26;20230;-62
2024/04/21 05:49:07;;;;;;;4.23;3.50;;;;;;;3.48;74.47;100512.75;5448541;26;20246;-61
2024/04/21 05:51:37;;;;;;;5.90;3.70;;;;;;;3.51;74.51;100517.91;5450477;26;20277;-62
2024/04/21 05:54:04;;;;;;;4.83;3.50;;;;;;;3.52;74.48;100513.69;5451175;26;20643;-62
2024/04/21 05:56:34;;;;;;;4.33;3.13;;;;;;;3.53;74.41;100510.31;5450645;26;20665;-63
2024/04/21 05:59:01;;;;;;;5.07;3.43;;;;;;;3.47;74.48;100507.63;5446794;26;20757;-62
2024/04/21 06:01:33;;;;;;;3.70;3.40;;;;;;;3.50;74.58;100512.78;5449623;26;20238;-62
2024/04/21 06:04:00;;;;;;;4.83;3.67;;;;;;;3.52;74.80;100513.69;5449958;26;20612;-62
2024/04/21 06:06:30;;;;;;;5.37;3.27;;;;;;;3.49;74.81;100503.41;5447993;26;20265;-63
2024/04/21 06:08:58;;;;;;;5.03;3.03;;;;;;;3.48;75.08;100512.75;5448810;26;20719;-63
2024/04/21 06:11:27;;;;;;;3.97;3.27;;;;;;;3.47;75.22;100511.03;5447244;26;20341;-63
2024/04/21 06:13:55;;;;;;;4.90;3.37;;;;;;;3.52;75.46;100508.59;5447553;26;20260;-63
2024/04/21 06:16:24;;;;;;;4.30;3.37;;;;;;;3.58;75.49;100506.19;5448922;26;20312;-67
2024/04/21 06:18:54;;;;;;;4.00;3.47;;;;;;;3.59;75.39;100502.81;5445788;26;20992;-63
2024/04/21 06:21:24;;;;;;;3.77;3.07;;;;;;;3.61;75.45;100503.72;5446530;26;20268;-63
2024/04/21 06:23:51;;;;;;;9.53;3.43;;;;;;;3.68;75.58;100500.47;5448192;26;20273;-62
2024/04/21 06:26:22;;;;;;;4.37;3.70;;;;;;;3.68;75.67;100490.28;5450554;26;20318;-64
2024/04/21 06:28:49;;;;;;;5.97;3.83;;;;;;;3.73;75.71;100498.91;5446977;26;20297;-63
2024/04/21 06:31:19;;;;;;;4.60;3.93;;;;;;;3.75;75.69;100499.78;5450303;26;20792;-62
2024/04/21 06:33:46;;;;;;;7.60;3.70;;;;;;;3.81;75.97;100499.94;5449124;26;20254;-64
2024/04/21 06:36:19;;;;;;;5.10;3.80;;;;;;;3.90;76.17;100503.53;5447084;26;20254;-61
2024/04/21 06:38:46;;;;;;;4.50;3.73;;;;;;;3.99;76.24;100501.19;5440352;26;20270;-62
2024/04/21 06:41:16;;;;;;;5.33;3.50;;;;;;;4.04;75.35;100507.25;5453394;26;20792;-60
2024/04/21 06:43:43;;;;;;;4.50;3.43;;;;;;;3.99;75.40;100501.19;5453500;26;20276;-62
2024/04/21 06:46:13;;;;;;;6.60;3.47;;;;;;;3.98;75.46;100505.44;5453463;26;20230;-63
2024/04/21 06:48:40;;;;;;;5.40;3.90;;;;;;;3.99;75.38;100509.69;5453135;26;20260;-63
2024/04/21 06:51:10;;;;;;;4.50;3.27;;;;;;;4.03;75.03;100510.63;5439187;26;20292;-62
2024/04/21 06:53:40;;;;;;;5.40;3.90;;;;;;;4.07;74.97;100510.72;5450294;26;20776;-63
2024/04/21 06:56:10;;;;;;;5.10;3.57;;;;;;;4.10;75.29;100510.81;5427226;26;20902;-63
2024/04/21 06:58:37;;;;;;;3.93;3.07;;;;;;;4.14;75.24;100509.19;5447611;26;20624;-61
2024/04/21 07:01:07;;;;;;;7.93;4.27;;;;;;;4.23;75.40;100506.81;5449645;26;20803;-62
2024/04/21 07:03:34;;;;;;;4.03;3.63;;;;;;;4.24;74.69;100503.47;5431913;26;20619;-61
2024/04/21 07:06:05;;;;;;;3.87;3.10;;;;;;;4.23;74.51;100504.25;5448746;26;20300;-62
2024/04/21 07:08:32;;;;;;;6.20;4.20;;;;;;;4.15;74.60;100505.78;5444686;26;20347;-62
2024/04/21 07:11:05;;;;;;;3.83;3.50;;;;;;;4.11;74.75;100506.56;5448983;26;20242;-62
2024/04/21 07:13:32;;;;;;;4.77;3.70;;;;;;;4.10;75.16;100505.69;5451741;26;20284;-62
2024/04/21 07:16:02;;;;;;;5.73;3.77;;;;;;;4.13;75.30;100498.97;5453508;26;20298;-62
2024/04/21 07:18:30;;;;;;;5.20;3.67;;;;;;;4.20;75.39;100500.78;5451555;26;20278;-62
2024/04/21 07:21:00;;;;;;;5.33;3.43;;;;;;;4.21;75.37;100503.38;5448946;26;20293;-61
2024/04/21 07:23:27;;;;;;;4.43;3.37;;;;;;;4.20;75.42;100498.22;5451753;26;21359;-61
2024/04/21 07:25:57;;;;;;;4.97;3.97;;;;;;;4.21;76.02;100502.53;5450269;26;21517;-63
2024/04/21 07:28:27;;;;;;;4.83;4.17;;;;;;;4.21;76.44;100508.47;5451315;26;20732;-63
2024/04/21 07:30:57;;;;;;;4.40;4.00;;;;;;;4.27;77.23;100500.97;5458592;26;20681;-63
2024/04/21 07:33:24;;;;;;;5.30;3.97;;;;;;;4.31;77.21;100494.25;5450257;26;20238;-61
2024/04/21 07:35:54;;;;;;;4.87;3.90;;;;;;;4.40;77.36;100501.22;5444832;26;20250;-62
2024/04/21 07:38:21;;;;;;;4.20;3.80;;;;;;;4.51;77.76;100497.19;5451246;26;20235;-61
2024/04/21 07:40:51;;;;;;;5.07;4.37;;;;;;;4.58;77.19;100493.94;5444597;26;20343;-63
2024/04/21 07:43:18;;;;;;;5.00;4.30;;;;;;;4.65;76.79;100495.78;5417236;26;20230;-61
2024/04/21 07:45:51;;;;;;;4.93;4.17;;;;;;;4.68;76.46;100490.75;5417744;26;20734;-62
2024/04/21 07:48:19;;;;;;;5.43;3.60;;;;;;;4.75;76.15;100492.59;5417863;26;20293;-60
2024/04/21 07:50:49;;;;;;;4.67;4.00;;;;;;;4.79;76.48;100491.81;5450663;26;20272;-62
2024/04/21 07:53:16;;;;;;;6.97;4.30;;;;;;;4.87;76.03;100489.41;5453423;26;20790;-62
2024/04/21 07:55:46;;;;;;;4.93;3.83;;;;;;;4.96;76.09;100491.25;5453530;26;20234;-61
2024/04/21 07:58:13;;;;;;;7.50;3.50;;;;;;;5.06;75.84;100494.00;5448177;26;20350;-61
2024/04/21 08:00:43;;;;;;;5.43;4.37;;;;;;;5.09;75.32;100483.84;5446504;26;20234;-62
2024/04/21 08:03:13;;;;;;;4.03;3.47;;;;;;;5.22;75.47;100476.38;5450122;26;20790;-61
2024/04/21 08:05:43;;;;;;;4.53;3.83;;;;;;;5.26;74.48;100480.72;5450299;26;20694;-62
2024/04/21 08:08:10;;;;;;;4.10;3.63;;;;;;;5.33;74.57;100478.28;5452501;26;20234;-61
2024/04/21 08:10:40;;;;;;;6.27;3.83;;;;;;;5.44;74.58;100486.13;5450661;26;20301;-62
2024/04/21 08:13:19;;;;;;;5.33;3.47;;;;;;;5.58;73.82;100486.34;5449980;26;20234;-61
2024/04/21 08:15:50;;;;;;;4.47;3.23;;;;;;;5.69;73.88;100489.94;5451939;26;20230;-61
2024/04/21 08:18:19;;;;;;;16.03;3.90;;;;;;;5.77;72.90;100498.56;5439675;26;20628;-61
2024/04/21 08:20:50;;;;;;;3.77;3.30;;;;;;;5.82;72.44;100493.56;5449516;26;20603;-60
2024/04/21 08:23:17;;;;;;;3.90;3.20;;;;;;;5.81;71.53;100507.16;5452303;26;20288;-61
2024/04/21 08:25:47;;;;;;;6.17;3.80;;;;;;;5.77;71.96;100501.13;5450192;26;20246;-62
2024/04/21 08:28:14;;;;;;;4.43;3.17;;;;;;;5.81;72.20;100505.44;5452111;26;20307;-60
2024/04/21 08:30:45;;;;;;;4.30;3.30;;;;;;;5.81;72.57;100512.28;5435382;26;20370;-63
2024/04/21 08:33:12;;;;;;;5.40;3.97;;;;;;;5.83;72.68;100515.72;5408345;26;1029079;-63
2024/04/21 08:35:53;;;;;;;4.23;3.50;;;;;;;5.86;73.11;100509.81;5445462;26;20798;-59
2024/04/21 08:38:20;;;;;;;4.10;3.10;;;;;;;5.84;72.95;100511.47;5449693;26;20233;-60
2024/04/21 08:40:52;;;;;;;5.50;3.30;;;;;;;5.75;71.98;100505.38;5449085;26;20847;-60
2024/04/21 08:43:22;;;;;;;3.80;3.47;;;;;;;5.75;72.06;100507.94;5449223;26;20580;-62
2024/04/21 08:45:55;;;;;;;6.10;2.83;;;;;;;5.79;71.68;100517.38;5447789;26;20286;-60
2024/04/21 08:48:25;;;;;;;3.60;3.30;;;;;;;5.79;70.58;100509.69;5450358;26;20717;-61
2024/04/21 08:50:58;;;;;;;4.07;2.70;;;;;;;5.84;70.51;100507.19;5448791;26;20246;-61
2024/04/21 08:53:25;;;;;;;4.90;4.40;;;;;;;5.96;70.01;100514.22;5445860;26;20246;-60
2024/04/21 08:55:57;;;;;;;4.40;4.00;;;;;;;6.02;69.48;100512.63;5449164;26;20246;-62
2024/04/21 08:58:25;;;;;;;5.40;4.27;;;;;;;6.06;68.98;100505.84;5450955;26;20394;-60
2024/04/21 09:00:57;;;;;;;4.67;4.00;;;;;;;6.15;69.32;100503.44;5444165;26;20230;-60
2024/04/21 09:03:26;;;;;;;5.57;3.97;;;;;;;6.25;69.10;100505.25;5436211;26;20247;-61
2024/04/21 09:06:00;;;;;;;4.63;3.30;;;;;;;6.31;68.36;100501.09;5446865;26;20277;-62
2024/04/21 09:08:27;;;;;;;3.90;3.23;;;;;;;6.41;68.33;100496.09;5444377;26;20343;-62
2024/04/21 09:10:58;;;;;;;4.40;3.07;;;;;;;6.45;67.40;100494.44;5430484;26;20948;-64
2024/04/21 09:13:25;;;;;;;3.87;3.00;;;;;;;6.44;67.01;100497.81;5449494;26;20262;-63
2024/04/21 09:15:55;;;;;;;4.20;3.80;;;;;;;6.39;66.85;100492.66;5450064;26;20806;-62
2024/04/21 09:18:23;;;;;;;5.23;3.93;;;;;;;6.32;66.33;100495.97;5450230;26;20230;-62
2024/04/21 09:20:53;;;;;;;5.67;4.47;;;;;;;6.31;67.21;100504.50;5449674;26;20264;-60
2024/04/21 09:23:22;;;;;;;6.27;4.27;;;;;;;6.39;67.67;100505.44;5447366;26;20350;-60
2024/04/21 09:25:52;;;;;;;5.87;4.13;;;;;;;6.48;67.29;100500.47;5449780;26;20226;-61
2024/04/21 09:28:19;;;;;;;4.30;3.90;;;;;;;6.45;66.88;100491.88;5447412;26;20254;-61
2024/04/21 09:30:49;;;;;;;5.07;3.70;;;;;;;6.45;66.93;100497.84;5442948;26;20242;-60
2024/04/21 09:33:17;;;;;;;4.23;3.50;;;;;;;6.44;66.38;100493.59;5445765;26;20276;-62
2024/04/21 09:35:46;;;;;;;4.43;3.90;;;;;;;6.44;66.40;100495.25;5433445;26;20234;-62
2024/04/21 09:38:14;;;;;;;4.10;3.47;;;;;;;6.42;66.35;100487.56;5449555;26;20241;-65
2024/04/21 09:40:51;;;;;;;6.07;3.90;;;;;;;6.41;65.81;100493.53;5449491;26;20234;-62
2024/04/21 09:43:18;;;;;;;4.60;4.20;;;;;;;6.38;65.79;100497.75;5449065;26;20309;-60
2024/04/21 09:45:49;;;;;;;4.77;4.03;;;;;;;6.37;65.87;100498.56;5448366;26;20284;-60
2024/04/21 09:48:17;;;;;;;4.87;3.77;;;;;;;6.33;65.39;100501.94;5445800;26;20247;-60
2024/04/21 09:50:48;;;;;;;4.07;3.67;;;;;;;6.33;65.41;100491.72;5427844;26;20348;-57
2024/04/21 09:53:18;;;;;;;3.37;2.60;;;;;;;6.35;66.14;100498.56;5428920;26;20354;-58
2024/04/21 09:55:55;;;;;;;3.40;2.60;;;;;;;6.37;65.47;100494.34;5445263;26;20245;-65
2024/04/21 09:58:25;;;;;;;4.83;3.20;;;;;;;6.39;65.59;100497.75;5440521;26;20342;-65
2024/04/21 10:00:56;;;;;;;4.87;2.60;;;;;;;6.43;65.20;100496.09;5449730;26;20239;-62
2024/04/21 10:03:23;;;;;;;4.50;2.53;;;;;;;6.43;65.37;100498.66;5449509;26;20221;-62
2024/04/21 10:05:54;;;;;;;3.60;2.73;;;;;;;6.43;65.75;100493.56;5446208;26;20334;-61
2024/04/21 10:08:24;;;;;;;5.53;3.50;;;;;;;6.45;65.72;100497.00;5440192;26;20247;-65
2024/04/21 10:10:57;;;;;;;5.73;2.97;;;;;;;6.45;65.75;100502.13;5444838;26;20246;-64
2024/04/21 10:13:26;;;;;;;3.63;2.77;;;;;;;6.42;65.46;100492.69;5449022;26;20222;-61
2024/04/21 10:15:59;;;;;;;3.30;2.53;;;;;;;6.41;65.52;100496.09;5448984;26;20234;-59
2024/04/21 10:18:26;;;;;;;4.77;2.97;;;;;;;6.38;65.57;100501.19;5448923;26;20222;-68
2024/04/21 10:20:56;;;;;;;4.70;3.33;;;;;;;6.40;65.47;100496.06;5448678;26;20230;-62
2024/04/21 10:23:23;;;;;;;2.87;2.67;;;;;;;6.40;66.09;100502.03;5444836;26;20658;-59
2024/04/21 10:25:56;;;;;;;3.00;2.70;;;;;;;6.45;66.05;100499.56;5448582;26;20245;-61
2024/04/21 10:28:25;;;;;;;4.87;2.93;;;;;;;6.47;65.75;100490.19;5448446;26;20246;-61
2024/04/21 10:31:05;;;;;;;3.00;2.70;;;;;;;6.50;66.04;100490.22;5442524;26;20620;-64
2024/04/21 10:33:33;;;;;;;4.80;3.13;;;;;;;6.55;66.15;100503.94;5427326;26;20313;-62
2024/04/21 10:36:03;;;;;;;3.13;2.83;;;;;;;6.57;66.94;100498.84;5448617;26;20276;-63
2024/04/21 10:38:33;;;;;;;3.13;2.80;;;;;;;6.52;67.24;100494.53;5431279;26;20390;-62
2024/04/21 10:41:07;;;;;;;3.47;2.87;;;;;;;6.48;67.79;100497.91;5428710;26;20288;-62
2024/04/21 10:43:37;;;;;;;3.10;2.80;;;;;;;6.53;67.98;100500.50;5437908;26;20659;-60
2024/04/21 10:46:04;;;;;;;5.27;3.03;;;;;;;6.63;67.85;100496.34;5448350;26;20230;-60
2024/04/21 10:48:34;;;;;;;2.87;2.60;;;;;;;6.66;67.69;100507.47;5446019;26;20614;-62
2024/04/21 10:51:02;;;;;;;2.93;2.43;;;;;;;6.62;68.10;100500.59;5446075;26;20285;-59
2024/04/21 10:53:32;;;;;;;4.43;2.60;;;;;;;6.53;68.77;100500.50;5447361;26;20234;-60
2024/04/21 10:55:59;;;;;;;5.53;2.80;;;;;;;6.47;68.89;100506.41;5447733;26;20334;-60
2024/04/21 10:58:32;;;;;;;3.27;2.67;;;;;;;6.49;69.41;100507.28;5444963;26;20740;-61
2024/04/21 11:00:59;;;;;;;3.47;3.00;;;;;;;6.56;69.17;100521.03;5443910;26;20246;-62
2024/04/21 11:03:29;;;;;;;4.33;3.10;;;;;;;6.59;68.72;100520.19;5443164;26;20234;-60
2024/04/21 11:06:00;;;;;;;3.30;2.90;;;;;;;6.56;68.25;100521.03;5444919;26;20742;-59
2024/04/21 11:08:31;;;;;;;2.93;2.40;;;;;;;6.55;68.72;100519.28;5440128;26;20354;-59
2024/04/21 11:10:58;;;;;;;3.43;2.80;;;;;;;6.56;69.01;100526.16;5445766;26;20242;-62
2024/04/21 11:13:28;;;;;;;6.57;3.13;;;;;;;6.52;69.40;100539.75;5449652;26;20241;-61
2024/04/21 11:15:58;;;;;;;3.63;2.60;;;;;;;6.43;69.93;100534.50;5441399;26;20243;-60
2024/04/21 11:18:27;;;;;;;4.67;2.80;;;;;;;6.40;70.40;100531.91;5447570;26;20254;-60
2024/04/21 11:20:55;;;;;;;3.27;2.97;;;;;;;6.39;70.77;100535.31;5449452;26;21003;-62
2024/04/21 11:23:25;;;;;;;3.80;3.10;;;;;;;6.37;70.85;100535.28;5449773;26;20230;-65
2024/04/21 11:25:52;;;;;;;3.10;2.60;;;;;;;6.29;70.91;100540.28;5450969;26;20234;-64
2024/04/21 11:28:25;;;;;;;2.43;2.23;;;;;;;6.31;71.36;100542.03;5439466;26;20269;-62
2024/04/21 11:31:03;;;;;;;3.37;3.07;;;;;;;6.39;71.29;100542.97;5449252;26;20349;-64
2024/04/21 11:33:34;;;;;;;3.87;2.53;;;;;;;6.45;70.99;100545.63;5440802;26;20724;-65
2024/04/21 11:36:02;;;;;;;6.73;3.00;;;;;;;6.49;70.93;100542.28;5452042;26;20234;-66
2024/04/21 11:38:32;;;;;;;2.90;2.60;;;;;;;6.49;70.91;100539.72;5436374;26;20673;-64
2024/04/21 11:40:59;;;;;;;3.60;2.80;;;;;;;6.52;71.05;100550.84;5444237;26;20881;-63
2024/04/21 11:43:30;;;;;;;3.47;2.30;;;;;;;6.50;71.20;100549.09;5449715;26;20330;-63